James R Barker — WYP8657 — position and weather

sailwx.info

Track history (hours):
 
Tides and Currents Weather Stations Pressure Air Temp Water Temp Dewpoint Dewpoint Depression Visibility Wind Speed Wind Dir Waves Ship Positions

James R Barker

Owner: THE INTERLAKE STEAMSHIP COMPANY, Middleburg Heights, OH. More information available from US FCC via Universal Licensing System and Coast Guard Vessel Documentation Center.

Last reported at 2018-Jan-10 02:04 UTC. Time now 2018-Feb-20 17:45 UTC.
Position N 46°45' W 092°07'.
Warning: this ship's position is 41 days out of date.

Length 305 m; draft 7.2 m.

Type: Cargo ship. MMSI: 366905890.

Date/timePositionNaut miles runAvg speedWind from/ knotsBaromVisibWave heightAir tempDewpointWater temp
2018-Jan-10 02:04N 46°45' W 092°07'0 0.1
2018-Jan-10 02:00N 46°45' W 092°07'0 0.0
2018-Jan-10 01:30N 46°45' W 092°07'0 0.0
2018-Jan-10 01:00N 46°45' W 092°07'0 0.0
2018-Jan-10 00:30N 46°45' W 092°07'0 0.0
2018-Jan-10 00:00N 46°45' W 092°07'0 0.3
2018-Jan-09 23:30N 46°45' W 092°07'1 1.6
2018-Jan-09 23:00N 46°45' W 092°06'0 0.7
2018-Jan-09 22:30N 46°45' W 092°06'0 0.3
2018-Jan-09 22:00N 46°46' W 092°06'0 0.0
2018-Jan-09 21:30N 46°46' W 092°06'0 0.0
2018-Jan-09 21:00N 46°46' W 092°06'0 0.0
2018-Jan-09 20:30N 46°46' W 092°06'0 0.0
2018-Jan-09 20:00N 46°46' W 092°06'0 0.0
2018-Jan-09 19:30N 46°46' W 092°06'0 0.0
2018-Jan-09 19:00N 46°46' W 092°06'0 0.2
2018-Jan-09 18:30N 46°46' W 092°06'1 2.5
2018-Jan-09 18:00N 46°47' W 092°05'4 7.8
2018-Jan-09 17:30N 46°49' W 092°00'4 8.2
2018-Jan-09 17:00N 46°50' W 091°55'4 8.3
2018-Jan-09 16:30N 46°52' W 091°49'4 8.5
2018-Jan-09 16:00N 46°54' W 091°44'3 6.0
2018-Jan-09 15:30N 46°52' W 091°47'611.8
2018-Jan-09 15:00N 46°49' W 091°54'4 7.2
2018-Jan-09 14:30N 46°51' W 091°50'713.1
2018-Jan-09 14:00N 46°55' W 091°43'  
2018-Jan-05 13:39N 45°47' W 083°41'2 9.4
2018-Jan-05 13:29N 45°46' W 083°40'4 9.3
2018-Jan-05 13:00N 45°42' W 083°36'4 8.9
2018-Jan-05 12:30N 45°38' W 083°33'4 8.3
2018-Jan-05 12:00N 45°35' W 083°30'4 8.2
2018-Jan-05 11:30N 45°31' W 083°27'4 8.2
2018-Jan-05 11:00N 45°27' W 083°25'4 8.2
2018-Jan-05 10:30N 45°24' W 083°23'4 8.2
2018-Jan-05 10:00N 45°20' W 083°21'  
2018-Jan-01 08:29N 45°27' W 083°24'612.5
2018-Jan-01 08:00N 45°32' W 083°29'612.5
2018-Jan-01 07:29N 45°38' W 083°34'612.5
2018-Jan-01 07:00N 45°42' W 083°39'  
Track history (hours):
 
Tides and Currents Weather Stations Pressure Air Temp Water Temp Dewpoint Dewpoint Depression Visibility Wind Speed Wind Dir Waves Ship Positions

James R Barker

Owner: THE INTERLAKE STEAMSHIP COMPANY, Middleburg Heights, OH. More information available from US FCC via Universal Licensing System and Coast Guard Vessel Documentation Center.

Last reported at 2018-Jan-10 02:04 UTC. Time now 2018-Feb-20 17:45 UTC.
Position N 46°45' W 092°07'.
Warning: this ship's position is 41 days out of date.

Length 305 m; draft 7.2 m.

Type: Cargo ship. MMSI: 366905890.

Date/timePositionNaut miles runAvg speedWind from/ knotsBaromVisibWave heightAir tempDewpointWater temp
2018-Jan-10 02:04N 46°45' W 092°07'0 0.1
2018-Jan-10 02:00N 46°45' W 092°07'0 0.0
2018-Jan-10 01:30N 46°45' W 092°07'0 0.0
2018-Jan-10 01:00N 46°45' W 092°07'0 0.0
2018-Jan-10 00:30N 46°45' W 092°07'0 0.0
2018-Jan-10 00:00N 46°45' W 092°07'0 0.3
2018-Jan-09 23:30N 46°45' W 092°07'1 1.6
2018-Jan-09 23:00N 46°45' W 092°06'0 0.7
2018-Jan-09 22:30N 46°45' W 092°06'0 0.3
2018-Jan-09 22:00N 46°46' W 092°06'0 0.0
2018-Jan-09 21:30N 46°46' W 092°06'0 0.0
2018-Jan-09 21:00N 46°46' W 092°06'0 0.0
2018-Jan-09 20:30N 46°46' W 092°06'0 0.0
2018-Jan-09 20:00N 46°46' W 092°06'0 0.0
2018-Jan-09 19:30N 46°46' W 092°06'0 0.0
2018-Jan-09 19:00N 46°46' W 092°06'0 0.2
2018-Jan-09 18:30N 46°46' W 092°06'1 2.5
2018-Jan-09 18:00N 46°47' W 092°05'4 7.8
2018-Jan-09 17:30N 46°49' W 092°00'4 8.2
2018-Jan-09 17:00N 46°50' W 091°55'4 8.3
2018-Jan-09 16:30N 46°52' W 091°49'4 8.5
2018-Jan-09 16:00N 46°54' W 091°44'3 6.0
2018-Jan-09 15:30N 46°52' W 091°47'611.8
2018-Jan-09 15:00N 46°49' W 091°54'4 7.2
2018-Jan-09 14:30N 46°51' W 091°50'713.1
2018-Jan-09 14:00N 46°55' W 091°43'  
2018-Jan-05 13:39N 45°47' W 083°41'2 9.4
2018-Jan-05 13:29N 45°46' W 083°40'4 9.3
2018-Jan-05 13:00N 45°42' W 083°36'4 8.9
2018-Jan-05 12:30N 45°38' W 083°33'4 8.3
2018-Jan-05 12:00N 45°35' W 083°30'4 8.2
2018-Jan-05 11:30N 45°31' W 083°27'4 8.2
2018-Jan-05 11:00N 45°27' W 083°25'4 8.2
2018-Jan-05 10:30N 45°24' W 083°23'4 8.2
2018-Jan-05 10:00N 45°20' W 083°21'  
2018-Jan-01 08:29N 45°27' W 083°24'612.5
2018-Jan-01 08:00N 45°32' W 083°29'612.5
2018-Jan-01 07:29N 45°38' W 083°34'612.5
2018-Jan-01 07:00N 45°42' W 083°39'  

Dump ship's entire track history